sensor_id;sensor_type;location;lat;lon;timestamp;P1;durP1;ratioP1;P2;durP2;ratioP2
48891;SDS011;50130;52.150;5.236;2023-02-17T00:01:08;46.4;;;40.5;;
48891;SDS011;50130;52.150;5.236;2023-02-17T00:02:45;49.5;;;39.9;;
48891;SDS011;50130;52.150;5.236;2023-02-17T00:05:57;47.6;;;39.81;;
48891;SDS011;50130;52.150;5.236;2023-02-17T00:07:34;53.7;;;42.4;;
48891;SDS011;50130;52.150;5.236;2023-02-17T00:09:11;48.5;;;39.4;;
48891;SDS011;50130;52.150;5.236;2023-02-17T00:12:31;53.8;;;42.5;;
48891;SDS011;50130;52.150;5.236;2023-02-17T00:14:08;51.9;;;41.1;;
48891;SDS011;50130;52.150;5.236;2023-02-17T00:15:46;47.4;;;37.31;;
48891;SDS011;50130;52.150;5.236;2023-02-17T00:17:22;40.9;;;34.5;;
48891;SDS011;50130;52.150;5.236;2023-02-17T00:20:37;40.31;;;34.6;;
48891;SDS011;50130;52.150;5.236;2023-02-17T00:22:13;44.6;;;38.5;;
48891;SDS011;50130;52.150;5.236;2023-02-17T00:23:49;39.31;;;35.1;;
48891;SDS011;50130;52.150;5.236;2023-02-17T00:25:26;46.0;;;36.21;;
48891;SDS011;50130;52.150;5.236;2023-02-17T00:28:40;46.8;;;39.1;;
48891;SDS011;50130;52.150;5.236;2023-02-17T00:30:16;47.1;;;37.4;;
48891;SDS011;50130;52.150;5.236;2023-02-17T00:31:53;39.4;;;35.0;;
48891;SDS011;50130;52.150;5.236;2023-02-17T00:35:07;42.0;;;35.81;;
48891;SDS011;50130;52.150;5.236;2023-02-17T00:36:43;41.5;;;35.21;;
48891;SDS011;50130;52.150;5.236;2023-02-17T00:38:20;40.81;;;35.31;;
48891;SDS011;50130;52.150;5.236;2023-02-17T00:41:33;36.71;;;31.6;;
48891;SDS011;50130;52.150;5.236;2023-02-17T00:43:10;37.6;;;33.5;;
48891;SDS011;50130;52.150;5.236;2023-02-17T00:44:46;43.2;;;36.9;;
48891;SDS011;50130;52.150;5.236;2023-02-17T00:46:22;37.31;;;33.21;;
48891;SDS011;50130;52.150;5.236;2023-02-17T00:49:35;39.0;;;33.3;;
48891;SDS011;50130;52.150;5.236;2023-02-17T00:51:12;41.2;;;36.1;;
48891;SDS011;50130;52.150;5.236;2023-02-17T00:52:51;45.1;;;37.9;;
48891;SDS011;50130;52.150;5.236;2023-02-17T00:56:04;46.3;;;37.31;;
48891;SDS011;50130;52.150;5.236;2023-02-17T00:57:41;49.2;;;38.71;;
48891;SDS011;50130;52.150;5.236;2023-02-17T00:59:17;52.9;;;41.7;;
48891;SDS011;50130;52.150;5.236;2023-02-17T01:02:30;52.9;;;41.7;;
48891;SDS011;50130;52.150;5.236;2023-02-17T01:04:07;48.9;;;39.71;;
48891;SDS011;50130;52.150;5.236;2023-02-17T01:05:43;48.8;;;38.9;;
48891;SDS011;50130;52.150;5.236;2023-02-17T01:07:23;48.4;;;38.71;;
48891;SDS011;50130;52.150;5.236;2023-02-17T01:10:37;51.3;;;39.21;;
48891;SDS011;50130;52.150;5.236;2023-02-17T01:12:16;44.6;;;36.0;;
48891;SDS011;50130;52.150;5.236;2023-02-17T01:13:52;49.5;;;37.5;;
48891;SDS011;50130;52.150;5.236;2023-02-17T01:17:13;50.7;;;39.1;;
48891;SDS011;50130;52.150;5.236;2023-02-17T01:18:49;55.1;;;39.71;;
48891;SDS011;50130;52.150;5.236;2023-02-17T01:20:26;62.6;;;41.4;;
48891;SDS011;50130;52.150;5.236;2023-02-17T01:22:02;59.1;;;40.1;;
48891;SDS011;50130;52.150;5.236;2023-02-17T01:25:14;63.9;;;40.6;;
48891;SDS011;50130;52.150;5.236;2023-02-17T01:26:50;56.4;;;38.5;;
48891;SDS011;50130;52.150;5.236;2023-02-17T01:28:28;60.9;;;39.31;;
48891;SDS011;50130;52.150;5.236;2023-02-17T01:31:43;63.8;;;41.8;;
48891;SDS011;50130;52.150;5.236;2023-02-17T01:33:19;60.2;;;39.6;;
48891;SDS011;50130;52.150;5.236;2023-02-17T01:34:55;59.1;;;41.1;;
48891;SDS011;50130;52.150;5.236;2023-02-17T01:38:08;64.91;;;42.4;;
48891;SDS011;50130;52.150;5.236;2023-02-17T01:41:21;69.2;;;42.9;;
48891;SDS011;50130;52.150;5.236;2023-02-17T01:43:00;67.8;;;41.2;;
48891;SDS011;50130;52.150;5.236;2023-02-17T01:47:43;64.1;;;38.5;;
48891;SDS011;50130;52.150;5.236;2023-02-17T01:49:26;56.7;;;37.5;;
48891;SDS011;50130;52.150;5.236;2023-02-17T01:52:48;58.7;;;38.0;;
48891;SDS011;50130;52.150;5.236;2023-02-17T01:54:28;58.7;;;38.0;;
48891;SDS011;50130;52.150;5.236;2023-02-17T01:56:10;62.3;;;40.9;;
48891;SDS011;50130;52.150;5.236;2023-02-17T01:57:49;66.7;;;41.8;;
48891;SDS011;50130;52.150;5.236;2023-02-17T02:01:05;65.2;;;41.6;;
48891;SDS011;50130;52.150;5.236;2023-02-17T02:02:43;57.7;;;37.0;;
48891;SDS011;50130;52.150;5.236;2023-02-17T02:04:25;80.2;;;43.2;;
48891;SDS011;50130;52.150;5.236;2023-02-17T02:06:07;67.1;;;37.1;;
48891;SDS011;50130;52.150;5.236;2023-02-17T02:09:29;63.9;;;36.4;;
48891;SDS011;50130;52.150;5.236;2023-02-17T02:11:10;68.7;;;36.4;;
48891;SDS011;50130;52.150;5.236;2023-02-17T02:12:46;70.0;;;35.9;;
48891;SDS011;50130;52.150;5.236;2023-02-17T02:14:22;75.8;;;38.6;;
48891;SDS011;50130;52.150;5.236;2023-02-17T02:17:49;58.6;;;34.1;;
48891;SDS011;50130;52.150;5.236;2023-02-17T02:19:47;73.41;;;38.81;;
48891;SDS011;50130;52.150;5.236;2023-02-17T02:23:17;61.5;;;36.1;;
48891;SDS011;50130;52.150;5.236;2023-02-17T02:25:32;69.7;;;37.81;;
48891;SDS011;50130;52.150;5.236;2023-02-17T02:27:39;62.9;;;36.5;;
48891;SDS011;50130;52.150;5.236;2023-02-17T02:29:41;67.0;;;38.31;;
48891;SDS011;50130;52.150;5.236;2023-02-17T02:33:15;64.1;;;37.4;;
48891;SDS011;50130;52.150;5.236;2023-02-17T02:36:43;62.5;;;37.31;;
48891;SDS011;50130;52.150;5.236;2023-02-17T02:38:27;65.41;;;38.81;;
48891;SDS011;50130;52.150;5.236;2023-02-17T02:40:12;65.7;;;39.4;;
48891;SDS011;50130;52.150;5.236;2023-02-17T02:41:52;55.7;;;37.0;;
48891;SDS011;50130;52.150;5.236;2023-02-17T02:43:31;62.2;;;37.5;;
48891;SDS011;50130;52.150;5.236;2023-02-17T02:46:54;51.1;;;34.0;;
48891;SDS011;50130;52.150;5.236;2023-02-17T02:48:32;53.5;;;35.6;;
48891;SDS011;50130;52.150;5.236;2023-02-17T02:50:10;52.0;;;34.0;;
48891;SDS011;50130;52.150;5.236;2023-02-17T02:53:54;56.8;;;32.71;;
48891;SDS011;50130;52.150;5.236;2023-02-17T02:55:40;55.7;;;31.9;;
48891;SDS011;50130;52.150;5.236;2023-02-17T02:57:31;58.9;;;32.71;;
48891;SDS011;50130;52.150;5.236;2023-02-17T02:59:24;49.4;;;30.6;;
48891;SDS011;50130;52.150;5.236;2023-02-17T03:01:14;42.6;;;28.3;;
48891;SDS011;50130;52.150;5.236;2023-02-17T03:02:58;42.9;;;27.8;;
48891;SDS011;50130;52.150;5.236;2023-02-17T03:04:45;40.31;;;26.9;;
48891;SDS011;50130;52.150;5.236;2023-02-17T03:06:32;48.6;;;29.0;;
48891;SDS011;50130;52.150;5.236;2023-02-17T03:10:00;46.0;;;28.6;;
48891;SDS011;50130;52.150;5.236;2023-02-17T03:11:38;39.81;;;26.2;;
48891;SDS011;50130;52.150;5.236;2023-02-17T03:13:16;48.4;;;28.8;;
48891;SDS011;50130;52.150;5.236;2023-02-17T03:14:54;35.9;;;25.1;;
48891;SDS011;50130;52.150;5.236;2023-02-17T03:18:14;43.3;;;26.4;;
48891;SDS011;50130;52.150;5.236;2023-02-17T03:19:50;50.0;;;28.4;;
48891;SDS011;50130;52.150;5.236;2023-02-17T03:21:28;45.1;;;28.2;;
48891;SDS011;50130;52.150;5.236;2023-02-17T03:24:47;42.2;;;27.2;;
48891;SDS011;50130;52.150;5.236;2023-02-17T03:26:25;48.3;;;29.1;;
48891;SDS011;50130;52.150;5.236;2023-02-17T03:28:01;46.8;;;27.8;;
48891;SDS011;50130;52.150;5.236;2023-02-17T03:29:37;47.2;;;28.1;;
48891;SDS011;50130;52.150;5.236;2023-02-17T03:32:50;51.9;;;27.8;;
48891;SDS011;50130;52.150;5.236;2023-02-17T03:34:26;40.4;;;24.4;;
48891;SDS011;50130;52.150;5.236;2023-02-17T03:36:03;46.4;;;26.3;;
48891;SDS011;50130;52.150;5.236;2023-02-17T03:39:16;46.4;;;26.3;;
48891;SDS011;50130;52.150;5.236;2023-02-17T03:40:52;45.6;;;26.2;;
48891;SDS011;50130;52.150;5.236;2023-02-17T03:42:29;42.4;;;25.3;;
48891;SDS011;50130;52.150;5.236;2023-02-17T03:45:42;40.9;;;24.0;;
48891;SDS011;50130;52.150;5.236;2023-02-17T03:47:18;48.5;;;27.2;;
48891;SDS011;50130;52.150;5.236;2023-02-17T03:48:55;41.8;;;25.3;;
48891;SDS011;50130;52.150;5.236;2023-02-17T03:50:31;46.1;;;26.0;;
48891;SDS011;50130;52.150;5.236;2023-02-17T03:53:44;49.2;;;29.1;;
48891;SDS011;50130;52.150;5.236;2023-02-17T03:55:21;52.0;;;28.2;;
48891;SDS011;50130;52.150;5.236;2023-02-17T03:56:58;49.9;;;29.5;;
48891;SDS011;50130;52.150;5.236;2023-02-17T04:00:11;47.2;;;28.9;;
48891;SDS011;50130;52.150;5.236;2023-02-17T04:01:48;45.8;;;30.1;;
48891;SDS011;50130;52.150;5.236;2023-02-17T04:03:24;53.0;;;33.5;;
48891;SDS011;50130;52.150;5.236;2023-02-17T04:06:37;52.7;;;32.9;;
48891;SDS011;50130;52.150;5.236;2023-02-17T04:08:13;54.1;;;35.4;;
48891;SDS011;50130;52.150;5.236;2023-02-17T04:09:49;52.9;;;34.6;;
48891;SDS011;50130;52.150;5.236;2023-02-17T04:11:25;56.2;;;35.31;;
48891;SDS011;50130;52.150;5.236;2023-02-17T04:14:38;54.9;;;35.1;;
48891;SDS011;50130;52.150;5.236;2023-02-17T04:16:14;66.2;;;41.4;;
48891;SDS011;50130;52.150;5.236;2023-02-17T04:17:50;54.4;;;38.1;;
48891;SDS011;50130;52.150;5.236;2023-02-17T04:21:03;68.5;;;45.6;;
48891;SDS011;50130;52.150;5.236;2023-02-17T04:22:39;59.8;;;40.81;;
48891;SDS011;50130;52.150;5.236;2023-02-17T04:24:17;72.61;;;48.5;;
48891;SDS011;50130;52.150;5.236;2023-02-17T04:27:29;54.9;;;41.5;;
48891;SDS011;50130;52.150;5.236;2023-02-17T04:29:05;66.1;;;45.3;;
48891;SDS011;50130;52.150;5.236;2023-02-17T04:30:42;67.3;;;46.3;;
48891;SDS011;50130;52.150;5.236;2023-02-17T04:32:19;69.2;;;46.3;;
48891;SDS011;50130;52.150;5.236;2023-02-17T04:35:31;62.5;;;44.4;;
48891;SDS011;50130;52.150;5.236;2023-02-17T04:37:08;58.0;;;42.6;;
48891;SDS011;50130;52.150;5.236;2023-02-17T04:38:44;69.3;;;46.4;;
48891;SDS011;50130;52.150;5.236;2023-02-17T04:41:57;63.0;;;43.7;;
48891;SDS011;50130;52.150;5.236;2023-02-17T04:43:33;58.8;;;41.6;;
48891;SDS011;50130;52.150;5.236;2023-02-17T04:45:10;60.8;;;42.6;;
48891;SDS011;50130;52.150;5.236;2023-02-17T04:48:24;62.2;;;43.9;;
48891;SDS011;50130;52.150;5.236;2023-02-17T04:50:01;49.2;;;36.1;;
48891;SDS011;50130;52.150;5.236;2023-02-17T04:51:39;55.4;;;38.0;;
48891;SDS011;50130;52.150;5.236;2023-02-17T04:53:15;53.4;;;37.31;;
48891;SDS011;50130;52.150;5.236;2023-02-17T04:56:29;52.5;;;36.6;;
48891;SDS011;50130;52.150;5.236;2023-02-17T04:58:05;57.5;;;38.31;;
48891;SDS011;50130;52.150;5.236;2023-02-17T04:59:43;51.0;;;35.6;;
48891;SDS011;50130;52.150;5.236;2023-02-17T05:02:56;47.7;;;34.81;;
48891;SDS011;50130;52.150;5.236;2023-02-17T05:04:33;53.4;;;36.9;;
48891;SDS011;50130;52.150;5.236;2023-02-17T05:06:10;48.1;;;33.8;;
48891;SDS011;50130;52.150;5.236;2023-02-17T05:09:23;45.8;;;33.4;;
48891;SDS011;50130;52.150;5.236;2023-02-17T05:10:59;44.9;;;33.21;;
48891;SDS011;50130;52.150;5.236;2023-02-17T05:12:36;46.2;;;33.0;;
48891;SDS011;50130;52.150;5.236;2023-02-17T05:14:13;42.1;;;32.0;;
48891;SDS011;50130;52.150;5.236;2023-02-17T05:17:25;47.4;;;34.31;;
48891;SDS011;50130;52.150;5.236;2023-02-17T05:19:01;44.0;;;32.0;;
48891;SDS011;50130;52.150;5.236;2023-02-17T05:20:38;55.6;;;37.31;;
48891;SDS011;50130;52.150;5.236;2023-02-17T05:23:51;48.3;;;34.71;;
48891;SDS011;50130;52.150;5.236;2023-02-17T05:25:28;52.3;;;35.71;;
48891;SDS011;50130;52.150;5.236;2023-02-17T05:27:05;58.3;;;38.5;;
48891;SDS011;50130;52.150;5.236;2023-02-17T05:30:17;45.7;;;34.0;;
48891;SDS011;50130;52.150;5.236;2023-02-17T05:31:54;52.7;;;37.71;;
48891;SDS011;50130;52.150;5.236;2023-02-17T05:33:30;64.91;;;41.9;;
48891;SDS011;50130;52.150;5.236;2023-02-17T05:35:07;55.6;;;37.1;;
48891;SDS011;50130;52.150;5.236;2023-02-17T05:38:21;58.4;;;40.81;;
48891;SDS011;50130;52.150;5.236;2023-02-17T05:39:57;68.3;;;44.0;;
48891;SDS011;50130;52.150;5.236;2023-02-17T05:41:33;71.8;;;44.0;;
48891;SDS011;50130;52.150;5.236;2023-02-17T05:44:45;63.9;;;42.3;;
48891;SDS011;50130;52.150;5.236;2023-02-17T05:46:22;77.41;;;45.3;;
48891;SDS011;50130;52.150;5.236;2023-02-17T05:47:57;67.91;;;44.5;;
48891;SDS011;50130;52.150;5.236;2023-02-17T05:51:12;59.7;;;40.31;;
48891;SDS011;50130;52.150;5.236;2023-02-17T05:52:49;57.9;;;39.1;;
48891;SDS011;50130;52.150;5.236;2023-02-17T05:54:25;65.2;;;42.9;;
48891;SDS011;50130;52.150;5.236;2023-02-17T05:56:01;77.61;;;46.0;;
48891;SDS011;50130;52.150;5.236;2023-02-17T05:59:13;69.8;;;44.5;;
48891;SDS011;50130;52.150;5.236;2023-02-17T06:00:49;68.3;;;44.5;;
48891;SDS011;50130;52.150;5.236;2023-02-17T06:02:26;71.91;;;45.5;;
48891;SDS011;50130;52.150;5.236;2023-02-17T06:05:38;70.5;;;44.5;;
48891;SDS011;50130;52.150;5.236;2023-02-17T06:07:15;59.1;;;40.9;;
48891;SDS011;50130;52.150;5.236;2023-02-17T06:08:51;76.2;;;44.8;;
48891;SDS011;50130;52.150;5.236;2023-02-17T06:12:04;75.91;;;45.9;;
48891;SDS011;50130;52.150;5.236;2023-02-17T06:13:40;84.1;;;48.4;;
48891;SDS011;50130;52.150;5.236;2023-02-17T06:15:17;85.4;;;47.8;;
48891;SDS011;50130;52.150;5.236;2023-02-17T06:16:54;80.8;;;46.8;;
48891;SDS011;50130;52.150;5.236;2023-02-17T06:20:09;69.41;;;43.4;;
48891;SDS011;50130;52.150;5.236;2023-02-17T06:21:45;82.2;;;47.4;;
48891;SDS011;50130;52.150;5.236;2023-02-17T06:23:21;58.8;;;39.1;;
48891;SDS011;50130;52.150;5.236;2023-02-17T06:26:35;67.3;;;42.1;;
48891;SDS011;50130;52.150;5.236;2023-02-17T06:28:11;77.5;;;44.6;;
48891;SDS011;50130;52.150;5.236;2023-02-17T06:29:47;62.7;;;41.1;;
48891;SDS011;50130;52.150;5.236;2023-02-17T06:33:00;69.3;;;40.81;;
48891;SDS011;50130;52.150;5.236;2023-02-17T06:34:36;85.8;;;45.8;;
48891;SDS011;50130;52.150;5.236;2023-02-17T06:36:13;63.4;;;40.4;;
48891;SDS011;50130;52.150;5.236;2023-02-17T06:37:49;64.6;;;38.81;;
48891;SDS011;50130;52.150;5.236;2023-02-17T06:41:02;60.3;;;39.1;;
48891;SDS011;50130;52.150;5.236;2023-02-17T06:42:38;65.7;;;38.81;;
48891;SDS011;50130;52.150;5.236;2023-02-17T06:44:14;63.6;;;37.71;;
48891;SDS011;50130;52.150;5.236;2023-02-17T06:47:28;70.2;;;39.0;;
48891;SDS011;50130;52.150;5.236;2023-02-17T06:49:04;61.3;;;36.4;;
48891;SDS011;50130;52.150;5.236;2023-02-17T06:50:41;75.11;;;39.0;;
48891;SDS011;50130;52.150;5.236;2023-02-17T06:53:53;63.8;;;36.71;;
48891;SDS011;50130;52.150;5.236;2023-02-17T06:55:30;66.91;;;36.31;;
48891;SDS011;50130;52.150;5.236;2023-02-17T06:57:06;58.1;;;35.81;;
48891;SDS011;50130;52.150;5.236;2023-02-17T06:58:43;52.8;;;32.9;;
48891;SDS011;50130;52.150;5.236;2023-02-17T07:01:57;50.8;;;32.0;;
48891;SDS011;50130;52.150;5.236;2023-02-17T07:03:33;56.4;;;34.81;;
48891;SDS011;50130;52.150;5.236;2023-02-17T07:05:09;52.4;;;32.6;;
48891;SDS011;50130;52.150;5.236;2023-02-17T07:08:21;44.0;;;30.1;;
48891;SDS011;50130;52.150;5.236;2023-02-17T07:09:58;49.7;;;33.21;;
48891;SDS011;50130;52.150;5.236;2023-02-17T07:11:34;47.6;;;30.9;;
48891;SDS011;50130;52.150;5.236;2023-02-17T07:14:46;39.71;;;28.9;;
48891;SDS011;50130;52.150;5.236;2023-02-17T07:16:22;46.8;;;30.8;;
48891;SDS011;50130;52.150;5.236;2023-02-17T07:17:59;47.0;;;32.1;;
48891;SDS011;50130;52.150;5.236;2023-02-17T07:21:13;44.2;;;29.0;;
48891;SDS011;50130;52.150;5.236;2023-02-17T07:22:49;50.0;;;32.4;;
48891;SDS011;50130;52.150;5.236;2023-02-17T07:24:26;51.3;;;33.0;;
48891;SDS011;50130;52.150;5.236;2023-02-17T07:26:02;47.5;;;31.9;;
48891;SDS011;50130;52.150;5.236;2023-02-17T07:29:16;51.8;;;31.1;;
48891;SDS011;50130;52.150;5.236;2023-02-17T07:30:52;40.5;;;29.5;;
48891;SDS011;50130;52.150;5.236;2023-02-17T07:32:28;40.9;;;27.8;;
48891;SDS011;50130;52.150;5.236;2023-02-17T07:35:42;39.9;;;27.1;;
48891;SDS011;50130;52.150;5.236;2023-02-17T07:37:20;43.8;;;28.7;;
48891;SDS011;50130;52.150;5.236;2023-02-17T07:42:08;44.0;;;28.9;;
48891;SDS011;50130;52.150;5.236;2023-02-17T07:43:45;39.81;;;26.7;;
48891;SDS011;50130;52.150;5.236;2023-02-17T07:45:23;41.7;;;27.8;;
48891;SDS011;50130;52.150;5.236;2023-02-17T07:46:59;37.21;;;26.8;;
48891;SDS011;50130;52.150;5.236;2023-02-17T07:50:12;35.4;;;26.1;;
48891;SDS011;50130;52.150;5.236;2023-02-17T08:03:47;34.0;;;25.6;;
48891;SDS011;50130;52.150;5.236;2023-02-17T08:07:01;34.71;;;24.8;;
48891;SDS011;50130;52.150;5.236;2023-02-17T08:13:34;34.0;;;26.4;;
48891;SDS011;50130;52.150;5.236;2023-02-17T08:15:11;27.9;;;23.0;;
48891;SDS011;50130;52.150;5.236;2023-02-17T08:16:48;30.2;;;23.9;;
48891;SDS011;50130;52.150;5.236;2023-02-17T08:18:25;27.0;;;22.0;;
48891;SDS011;50130;52.150;5.236;2023-02-17T08:21:38;27.7;;;22.4;;
48891;SDS011;50130;52.150;5.236;2023-02-17T08:23:14;31.8;;;23.5;;
48891;SDS011;50130;52.150;5.236;2023-02-17T08:24:50;26.5;;;21.0;;
48891;SDS011;50130;52.150;5.236;2023-02-17T08:28:03;31.4;;;25.0;;
48891;SDS011;50130;52.150;5.236;2023-02-17T08:29:40;28.7;;;23.0;;
48891;SDS011;50130;52.150;5.236;2023-02-17T08:31:18;23.5;;;20.41;;
48891;SDS011;50130;52.150;5.236;2023-02-17T08:32:56;28.1;;;23.8;;
48891;SDS011;50130;52.150;5.236;2023-02-17T08:36:10;25.3;;;21.2;;
48891;SDS011;50130;52.150;5.236;2023-02-17T08:37:46;27.5;;;23.3;;
48891;SDS011;50130;52.150;5.236;2023-02-17T08:39:24;26.3;;;21.8;;
48891;SDS011;50130;52.150;5.236;2023-02-17T08:42:47;26.2;;;22.9;;
48891;SDS011;50130;52.150;5.236;2023-02-17T08:44:23;27.1;;;22.9;;
48891;SDS011;50130;52.150;5.236;2023-02-17T08:46:00;30.9;;;23.3;;
48891;SDS011;50130;52.150;5.236;2023-02-17T08:47:36;27.4;;;23.4;;
48891;SDS011;50130;52.150;5.236;2023-02-17T08:50:51;27.4;;;21.6;;
48891;SDS011;50130;52.150;5.236;2023-02-17T08:52:27;28.5;;;21.8;;
48891;SDS011;50130;52.150;5.236;2023-02-17T08:54:03;30.1;;;23.4;;
48891;SDS011;50130;52.150;5.236;2023-02-17T08:57:19;26.1;;;22.6;;
48891;SDS011;50130;52.150;5.236;2023-02-17T08:58:56;24.7;;;19.7;;
48891;SDS011;50130;52.150;5.236;2023-02-17T09:00:32;27.8;;;22.1;;
48891;SDS011;50130;52.150;5.236;2023-02-17T09:02:09;30.1;;;22.5;;
48891;SDS011;50130;52.150;5.236;2023-02-17T09:05:24;31.0;;;23.6;;
48891;SDS011;50130;52.150;5.236;2023-02-17T09:07:01;27.6;;;22.5;;
48891;SDS011;50130;52.150;5.236;2023-02-17T09:08:38;29.8;;;22.1;;
48891;SDS011;50130;52.150;5.236;2023-02-17T09:11:54;30.4;;;22.2;;
48891;SDS011;50130;52.150;5.236;2023-02-17T09:13:32;32.5;;;24.6;;
48891;SDS011;50130;52.150;5.236;2023-02-17T09:15:09;30.9;;;24.3;;
48891;SDS011;50130;52.150;5.236;2023-02-17T09:18:21;30.7;;;24.0;;
48891;SDS011;50130;52.150;5.236;2023-02-17T09:19:58;27.6;;;23.1;;
48891;SDS011;50130;52.150;5.236;2023-02-17T09:21:34;25.5;;;20.8;;
48891;SDS011;50130;52.150;5.236;2023-02-17T09:23:12;28.0;;;21.7;;
48891;SDS011;50130;52.150;5.236;2023-02-17T09:26:24;29.0;;;24.0;;
48891;SDS011;50130;52.150;5.236;2023-02-17T09:28:00;30.2;;;23.4;;
48891;SDS011;50130;52.150;5.236;2023-02-17T09:29:36;26.0;;;21.9;;
48891;SDS011;50130;52.150;5.236;2023-02-17T09:32:54;27.7;;;22.8;;
48891;SDS011;50130;52.150;5.236;2023-02-17T09:34:32;26.5;;;21.6;;
48891;SDS011;50130;52.150;5.236;2023-02-17T09:36:11;28.9;;;22.6;;
48891;SDS011;50130;52.150;5.236;2023-02-17T09:37:50;25.4;;;22.1;;
48891;SDS011;50130;52.150;5.236;2023-02-17T09:41:05;26.7;;;23.3;;
48891;SDS011;50130;52.150;5.236;2023-02-17T09:42:50;25.7;;;22.6;;
48891;SDS011;50130;52.150;5.236;2023-02-17T09:44:32;28.1;;;23.4;;
48891;SDS011;50130;52.150;5.236;2023-02-17T09:46:17;26.4;;;21.9;;
48891;SDS011;50130;52.150;5.236;2023-02-17T09:49:43;26.2;;;22.4;;
48891;SDS011;50130;52.150;5.236;2023-02-17T09:51:25;24.2;;;21.2;;
48891;SDS011;50130;52.150;5.236;2023-02-17T09:53:05;24.5;;;20.7;;
48891;SDS011;50130;52.150;5.236;2023-02-17T09:54:53;24.2;;;19.41;;
48891;SDS011;50130;52.150;5.236;2023-02-17T09:56:38;23.1;;;19.0;;
48891;SDS011;50130;52.150;5.236;2023-02-17T09:59:58;24.5;;;19.61;;
48891;SDS011;50130;52.150;5.236;2023-02-17T10:01:41;21.8;;;18.0;;
48891;SDS011;50130;52.150;5.236;2023-02-17T10:03:22;23.8;;;18.8;;
48891;SDS011;50130;52.150;5.236;2023-02-17T10:05:06;22.9;;;19.11;;
48891;SDS011;50130;52.150;5.236;2023-02-17T10:08:29;20.0;;;16.4;;
48891;SDS011;50130;52.150;5.236;2023-02-17T10:10:10;23.1;;;19.11;;
48891;SDS011;50130;52.150;5.236;2023-02-17T10:11:52;21.8;;;16.9;;
48891;SDS011;50130;52.150;5.236;2023-02-17T10:13:35;22.9;;;19.0;;
48891;SDS011;50130;52.150;5.236;2023-02-17T10:16:59;22.8;;;17.11;;
48891;SDS011;50130;52.150;5.236;2023-02-17T10:18:42;19.61;;;15.6;;
48891;SDS011;50130;52.150;5.236;2023-02-17T10:20:24;16.3;;;14.5;;
48891;SDS011;50130;52.150;5.236;2023-02-17T10:22:07;17.61;;;14.2;;
48891;SDS011;50130;52.150;5.236;2023-02-17T10:23:50;17.61;;;14.2;;
48891;SDS011;50130;52.150;5.236;2023-02-17T10:27:29;18.41;;;14.3;;
48891;SDS011;50130;52.150;5.236;2023-02-17T10:29:16;17.8;;;13.0;;
48891;SDS011;50130;52.150;5.236;2023-02-17T10:31:06;20.2;;;15.1;;
48891;SDS011;50130;52.150;5.236;2023-02-17T10:32:49;19.5;;;15.2;;
48891;SDS011;50130;52.150;5.236;2023-02-17T10:34:36;17.0;;;14.3;;
48891;SDS011;50130;52.150;5.236;2023-02-17T10:36:18;18.8;;;15.3;;
48891;SDS011;50130;52.150;5.236;2023-02-17T10:39:52;18.2;;;14.4;;
48891;SDS011;50130;52.150;5.236;2023-02-17T10:41:32;19.0;;;14.9;;
48891;SDS011;50130;52.150;5.236;2023-02-17T10:43:11;18.0;;;14.4;;
48891;SDS011;50130;52.150;5.236;2023-02-17T10:45:02;19.11;;;13.7;;
48891;SDS011;50130;52.150;5.236;2023-02-17T10:46:47;20.0;;;14.3;;
48891;SDS011;50130;52.150;5.236;2023-02-17T10:50:14;20.7;;;15.3;;
48891;SDS011;50130;52.150;5.236;2023-02-17T10:51:54;17.8;;;14.0;;
48891;SDS011;50130;52.150;5.236;2023-02-17T10:53:36;21.4;;;15.1;;
48891;SDS011;50130;52.150;5.236;2023-02-17T10:55:18;17.7;;;15.4;;
48891;SDS011;50130;52.150;5.236;2023-02-17T10:58:49;20.0;;;13.5;;
48891;SDS011;50130;52.150;5.236;2023-02-17T11:00:30;20.0;;;13.5;;
48891;SDS011;50130;52.150;5.236;2023-02-17T11:02:16;20.0;;;15.1;;
48891;SDS011;50130;52.150;5.236;2023-02-17T11:03:59;18.0;;;15.2;;
48891;SDS011;50130;52.150;5.236;2023-02-17T11:05:40;20.7;;;16.2;;
48891;SDS011;50130;52.150;5.236;2023-02-17T11:09:15;18.8;;;15.2;;
48891;SDS011;50130;52.150;5.236;2023-02-17T11:10:58;19.0;;;14.6;;
48891;SDS011;50130;52.150;5.236;2023-02-17T11:12:38;19.8;;;14.8;;
48891;SDS011;50130;52.150;5.236;2023-02-17T11:14:17;17.91;;;13.8;;
48891;SDS011;50130;52.150;5.236;2023-02-17T11:17:37;20.3;;;14.8;;
48891;SDS011;50130;52.150;5.236;2023-02-17T11:19:19;18.2;;;14.3;;
48891;SDS011;50130;52.150;5.236;2023-02-17T11:21:00;19.7;;;14.9;;
48891;SDS011;50130;52.150;5.236;2023-02-17T11:22:40;22.1;;;16.0;;
48891;SDS011;50130;52.150;5.236;2023-02-17T11:25:57;18.11;;;14.4;;
48891;SDS011;50130;52.150;5.236;2023-02-17T11:27:37;19.61;;;15.0;;
48891;SDS011;50130;52.150;5.236;2023-02-17T11:29:14;17.5;;;14.8;;
48891;SDS011;50130;52.150;5.236;2023-02-17T11:30:53;20.5;;;14.6;;
48891;SDS011;50130;52.150;5.236;2023-02-17T11:34:10;17.5;;;14.1;;
48891;SDS011;50130;52.150;5.236;2023-02-17T11:35:49;17.3;;;12.7;;
48891;SDS011;50130;52.150;5.236;2023-02-17T11:37:31;20.11;;;13.9;;
48891;SDS011;50130;52.150;5.236;2023-02-17T11:39:16;19.8;;;14.7;;
48891;SDS011;50130;52.150;5.236;2023-02-17T11:42:34;16.9;;;13.6;;
48891;SDS011;50130;52.150;5.236;2023-02-17T11:44:20;17.91;;;13.4;;
48891;SDS011;50130;52.150;5.236;2023-02-17T11:46:00;18.2;;;13.7;;
48891;SDS011;50130;52.150;5.236;2023-02-17T11:47:47;18.2;;;14.3;;
48891;SDS011;50130;52.150;5.236;2023-02-17T11:49:41;20.41;;;14.6;;
48891;SDS011;50130;52.150;5.236;2023-02-17T11:53:25;21.8;;;14.6;;
48891;SDS011;50130;52.150;5.236;2023-02-17T11:55:22;20.9;;;14.3;;
48891;SDS011;50130;52.150;5.236;2023-02-17T11:57:13;20.0;;;14.0;;
48891;SDS011;50130;52.150;5.236;2023-02-17T11:59:13;19.61;;;13.1;;
48891;SDS011;50130;52.150;5.236;2023-02-17T12:01:10;18.3;;;11.6;;
48891;SDS011;50130;52.150;5.236;2023-02-17T12:03:08;19.41;;;11.0;;
48891;SDS011;50130;52.150;5.236;2023-02-17T12:06:41;16.61;;;10.3;;
48891;SDS011;50130;52.150;5.236;2023-02-17T12:08:31;17.61;;;10.9;;
48891;SDS011;50130;52.150;5.236;2023-02-17T12:12:06;18.41;;;9.81;;
48891;SDS011;50130;52.150;5.236;2023-02-17T12:13:54;18.2;;;9.81;;
48891;SDS011;50130;52.150;5.236;2023-02-17T12:15:49;19.0;;;9.81;;
48891;SDS011;50130;52.150;5.236;2023-02-17T12:17:40;18.7;;;9.21;;
48891;SDS011;50130;52.150;5.236;2023-02-17T12:19:30;15.1;;;8.31;;
48891;SDS011;50130;52.150;5.236;2023-02-17T12:21:19;17.2;;;9.1;;
48891;SDS011;50130;52.150;5.236;2023-02-17T12:23:13;19.41;;;9.0;;
48891;SDS011;50130;52.150;5.236;2023-02-17T12:25:10;18.2;;;9.0;;
48891;SDS011;50130;52.150;5.236;2023-02-17T12:28:46;20.5;;;8.31;;
48891;SDS011;50130;52.150;5.236;2023-02-17T12:30:47;18.7;;;7.6;;
48891;SDS011;50130;52.150;5.236;2023-02-17T12:32:39;17.41;;;7.9;;
48891;SDS011;50130;52.150;5.236;2023-02-17T12:34:29;19.7;;;7.8;;
48891;SDS011;50130;52.150;5.236;2023-02-17T12:36:09;17.7;;;7.8;;
48891;SDS011;50130;52.150;5.236;2023-02-17T12:37:50;20.0;;;8.2;;
48891;SDS011;50130;52.150;5.236;2023-02-17T12:41:19;18.7;;;8.0;;
48891;SDS011;50130;52.150;5.236;2023-02-17T12:43:00;17.8;;;8.4;;
48891;SDS011;50130;52.150;5.236;2023-02-17T12:44:43;17.11;;;7.4;;
48891;SDS011;50130;52.150;5.236;2023-02-17T12:46:28;19.61;;;8.0;;
48891;SDS011;50130;52.150;5.236;2023-02-17T12:48:11;20.7;;;8.1;;
48891;SDS011;50130;52.150;5.236;2023-02-17T12:51:39;21.8;;;8.6;;
48891;SDS011;50130;52.150;5.236;2023-02-17T12:53:22;22.9;;;8.5;;
48891;SDS011;50130;52.150;5.236;2023-02-17T12:55:10;21.4;;;8.71;;
48891;SDS011;50130;52.150;5.236;2023-02-17T12:56:57;21.1;;;8.4;;
48891;SDS011;50130;52.150;5.236;2023-02-17T12:58:40;19.2;;;8.0;;
48891;SDS011;50130;52.150;5.236;2023-02-17T13:02:01;19.2;;;8.0;;
48891;SDS011;50130;52.150;5.236;2023-02-17T13:03:39;20.3;;;8.5;;